Time;durP1;ratioP1;P1;durP2;ratioP2;P2;SDS_P1;SDS_P2;PMS_P1;PMS_P2;Temp;Humidity;BMP_temperature;BMP_pressure;BME280_temperature;BME280_humidity;BME280_pressure;Samples;Min_cycle;Max_cycle;Signal;HPM_P1;HPM_P2
2023/12/19 00:01:46;;;;;;;1.50;0.98;;;3.60;1.00;;;;;;5196933;28;20037;-34
2023/12/19 00:04:20;;;;;;;1.08;0.98;;;3.60;1.00;;;;;;5200755;28;20029;-34
2023/12/19 00:06:54;;;;;;;1.33;1.20;;;3.70;1.00;;;;;;5200139;28;20033;-34
2023/12/19 00:09:25;;;;;;;1.40;1.30;;;3.80;1.00;;;;;;5198978;28;20038;-34
2023/12/19 00:11:56;;;;;;;0.90;0.70;;;4.00;1.00;;;;;;5188784;28;20029;-34
2023/12/19 00:14:30;;;;;;;1.08;0.98;;;4.00;1.00;;;;;;5208754;28;20055;-34
2023/12/19 00:17:04;;;;;;;1.13;0.90;;;3.90;1.00;;;;;;5197996;28;20384;-34
2023/12/19 00:19:35;;;;;;;2.08;0.93;;;3.90;1.00;;;;;;5200693;28;20656;-34
2023/12/19 00:22:09;;;;;;;1.33;1.23;;;3.70;1.00;;;;;;5193213;28;20040;-34
2023/12/19 00:24:40;;;;;;;4.50;1.67;;;3.70;1.00;;;;;;5186214;28;20041;-34
2023/12/19 00:27:14;;;;;;;1.10;1.00;;;3.50;1.00;;;;;;5200617;28;20269;-34
2023/12/19 00:29:45;;;;;;;1.75;1.30;;;3.40;1.00;;;;;;5191213;28;20025;-34
2023/12/19 00:32:16;;;;;;;2.63;1.27;;;3.40;1.00;;;;;;5199014;28;20037;-35
2023/12/19 00:34:48;;;;;;;2.20;1.02;;;3.20;1.00;;;;;;5205913;28;20027;-35
2023/12/19 00:37:21;;;;;;;1.30;0.90;;;3.20;1.00;;;;;;5198357;28;20392;-35
2023/12/19 00:39:55;;;;;;;2.07;1.20;;;3.20;1.00;;;;;;5198901;28;20033;-37
2023/12/19 00:42:31;;;;;;;1.23;1.17;;;3.30;1.00;;;;;;5190142;28;20260;-34
2023/12/19 00:45:03;;;;;;;1.20;1.02;;;3.40;1.00;;;;;;5200726;28;20037;-34
2023/12/19 00:47:38;;;;;;;0.90;0.80;;;3.60;1.00;;;;;;5196538;28;20210;-34
2023/12/19 00:50:16;;;;;;;1.65;1.00;;;3.80;1.00;;;;;;5199116;28;20029;-34
2023/12/19 00:52:54;;;;;;;1.40;1.30;;;3.90;1.00;;;;;;5196779;28;20029;-34
2023/12/19 00:55:31;;;;;;;2.20;1.20;;;3.80;1.00;;;;;;5200181;28;20178;-34
2023/12/19 00:58:05;;;;;;;1.88;1.10;;;3.80;1.00;;;;;;5198589;28;20063;-34
2023/12/19 01:00:37;;;;;;;0.93;0.93;;;3.80;1.00;;;;;;5196559;28;20488;-34
2023/12/19 01:03:16;;;;;;;2.10;1.05;;;3.90;1.00;;;;;;5186964;28;20048;-34
2023/12/19 01:05:50;;;;;;;1.00;0.88;;;3.70;1.00;;;;;;5191172;28;20030;-35
2023/12/19 01:08:21;;;;;;;1.65;1.15;;;3.60;1.00;;;;;;5199590;28;20454;-35
2023/12/19 01:10:54;;;;;;;1.38;0.80;;;3.50;1.00;;;;;;5198479;28;20383;-35
2023/12/19 01:13:28;;;;;;;1.08;0.90;;;3.40;1.00;;;;;;5199854;28;20032;-37
2023/12/19 01:15:59;;;;;;;;;;;3.40;1.00;;;;;;5195122;28;20043;-35
2023/12/19 01:18:31;;;;;;;1.83;1.02;;;3.30;1.00;;;;;;5199136;28;19999;-34
2023/12/19 01:21:05;;;;;;;0.95;0.95;;;3.20;1.00;;;;;;5193899;28;20309;-34
2023/12/19 01:23:36;;;;;;;1.50;1.15;;;3.00;1.00;;;;;;5211874;28;20384;-34
2023/12/19 01:26:13;;;;;;;4.13;1.67;;;2.80;1.00;;;;;;5199558;28;20259;-34
2023/12/19 01:28:46;;;;;;;1.38;1.23;;;2.80;1.00;;;;;;5199004;28;20441;-34
2023/12/19 01:31:18;;;;;;;2.28;1.75;;;2.70;1.00;;;;;;5196065;28;20033;-34
2023/12/19 01:33:52;;;;;;;5.13;1.42;;;2.60;1.00;;;;;;5195834;28;20044;-34
2023/12/19 01:36:26;;;;;;;;;;;2.60;1.00;;;;;;5200160;28;20041;-34
2023/12/19 01:38:59;;;;;;;1.55;1.27;;;2.50;1.00;;;;;;5189262;28;20122;-35
2023/12/19 01:41:33;;;;;;;1.57;1.47;;;2.40;1.00;;;;;;5197120;28;20115;-35
2023/12/19 01:44:16;;;;;;;2.92;1.48;;;2.40;1.00;;;;;;5198561;28;20033;-35
2023/12/19 01:46:48;;;;;;;7.10;1.75;;;2.20;1.00;;;;;;5181042;28;20064;-35
2023/12/19 01:49:22;;;;;;;2.67;1.88;;;2.20;1.00;;;;;;5199234;28;20365;-35
2023/12/19 01:51:53;;;;;;;1.95;1.60;;;2.10;25.10;;;;;;5198765;28;20049;-35
2023/12/19 01:54:27;;;;;;;5.05;2.70;;;1.90;47.80;;;;;;5197048;28;20040;-35
2023/12/19 01:57:00;;;;;;;3.58;2.35;;;1.80;99.90;;;;;;5196834;28;20135;-35
2023/12/19 01:59:32;;;;;;;4.20;2.45;;;1.70;1.00;;;;;;5195383;28;20029;-35
2023/12/19 02:02:03;;;;;;;7.95;2.92;;;1.60;1.00;;;;;;5181015;28;20465;-35
2023/12/19 02:04:37;;;;;;;2.97;1.80;;;1.60;99.90;;;;;;5183256;28;20044;-35
2023/12/19 02:07:09;;;;;;;3.08;2.08;;;1.60;99.90;;;;;;5186609;28;20593;-34
2023/12/19 02:09:40;;;;;;;4.35;2.22;;;1.70;99.90;;;;;;5183721;28;20210;-34
2023/12/19 02:12:12;;;;;;;3.50;2.33;;;1.70;1.00;;;;;;5202462;28;20025;-37
2023/12/19 02:14:44;;;;;;;5.30;2.88;;;1.70;1.00;;;;;;5200324;28;20043;-35
2023/12/19 02:17:21;;;;;;;3.92;2.08;;;1.70;1.00;;;;;;5185149;28;20234;-35
2023/12/19 02:19:52;;;;;;;3.85;2.00;;;1.80;1.00;;;;;;5196772;28;20252;-35
2023/12/19 02:22:26;;;;;;;4.40;2.70;;;1.80;1.00;;;;;;5188111;28;20336;-34
2023/12/19 02:24:58;;;;;;;4.07;1.98;;;1.70;99.90;;;;;;5199773;28;20210;-34
2023/12/19 02:27:33;;;;;;;2.90;2.10;;;1.70;99.90;;;;;;5201001;28;20063;-35
2023/12/19 02:30:07;;;;;;;;;;;1.70;99.90;;;;;;5201710;28;20025;-35
2023/12/19 02:32:42;;;;;;;3.67;2.55;;;1.80;99.90;;;;;;5198794;28;20206;-35
2023/12/19 02:35:19;;;;;;;4.68;2.63;;;1.90;35.90;;;;;;5202720;28;20036;-34
2023/12/19 02:37:50;;;;;;;2.60;2.17;;;1.90;1.00;;;;;;5201291;28;20034;-35
2023/12/19 02:40:24;;;;;;;2.65;1.88;;;1.90;1.00;;;;;;5202442;28;20135;-35
2023/12/19 02:42:55;;;;;;;2.33;2.03;;;1.90;1.00;;;;;;5200794;28;20032;-35
2023/12/19 02:45:31;;;;;;;2.22;1.63;;;1.90;1.00;;;;;;5192450;28;20434;-35
2023/12/19 02:48:05;;;;;;;4.00;1.38;;;1.80;1.00;;;;;;5218333;28;20030;-35
2023/12/19 02:50:42;;;;;;;1.83;1.60;;;1.80;91.40;;;;;;5200771;28;20039;-35
2023/12/19 02:53:19;;;;;;;2.50;1.30;;;1.70;99.90;;;;;;5194251;28;20029;-35
2023/12/19 02:55:50;;;;;;;2.63;1.85;;;1.60;99.90;;;;;;5184926;28;20056;-35
2023/12/19 02:58:21;;;;;;;2.95;1.80;;;1.70;99.90;;;;;;5202168;28;20037;-35
2023/12/19 03:00:55;;;;;;;2.17;1.85;;;1.80;99.90;;;;;;5202597;28;20039;-35
2023/12/19 03:03:29;;;;;;;2.90;1.70;;;1.90;1.00;;;;;;5176751;28;20040;-34
2023/12/19 03:06:00;;;;;;;3.08;1.60;;;1.90;1.00;;;;;;5197071;28;20044;-34
2023/12/19 03:08:33;;;;;;;2.78;1.52;;;1.90;1.00;;;;;;5201811;28;20021;-34
2023/12/19 03:11:04;;;;;;;2.13;1.50;;;1.80;1.00;;;;;;5201441;28;20033;-38
2023/12/19 03:13:37;;;;;;;2.72;1.83;;;1.80;1.00;;;;;;5189089;28;20031;-34
2023/12/19 03:16:13;;;;;;;1.33;1.23;;;1.80;1.00;;;;;;5182834;28;20221;-34
2023/12/19 03:18:46;;;;;;;1.40;1.30;;;1.80;1.00;;;;;;5198594;28;20370;-35
2023/12/19 03:21:18;;;;;;;2.03;1.30;;;1.80;1.00;;;;;;5211131;28;20034;-34
2023/12/19 03:23:51;;;;;;;1.67;1.52;;;2.00;1.00;;;;;;5191933;28;20037;-34
2023/12/19 03:26:25;;;;;;;1.83;1.33;;;2.00;1.00;;;;;;5201361;28;20037;-34
2023/12/19 03:29:01;;;;;;;1.95;1.70;;;2.10;1.00;;;;;;5200141;28;20426;-35
2023/12/19 03:31:32;;;;;;;2.00;1.65;;;2.00;1.00;;;;;;5201073;28;20242;-35
2023/12/19 03:34:06;;;;;;;2.33;1.63;;;2.20;1.00;;;;;;5201207;28;20019;-35
2023/12/19 03:36:40;;;;;;;1.63;1.08;;;2.20;1.00;;;;;;5200570;28;20314;-34
2023/12/19 03:39:11;;;;;;;1.00;1.00;;;2.30;1.00;;;;;;5202896;28;20454;-34
2023/12/19 03:41:42;;;;;;;1.25;1.15;;;2.20;1.00;;;;;;5195234;28;20047;-34
2023/12/19 03:44:18;;;;;;;1.55;1.00;;;2.20;99.90;;;;;;5214822;28;20037;-34
2023/12/19 03:46:49;;;;;;;0.77;0.77;;;2.30;99.90;;;;;;5177990;28;20030;-35
2023/12/19 03:49:21;;;;;;;0.80;0.80;;;2.30;99.90;;;;;;5186409;28;20017;-35
2023/12/19 03:51:54;;;;;;;0.85;0.85;;;2.30;99.90;;;;;;5197286;28;20037;-35
2023/12/19 03:54:27;;;;;;;5.35;1.75;;;2.50;99.90;;;;;;5197200;28;20457;-34
2023/12/19 03:57:00;;;;;;;2.58;1.50;;;2.50;99.90;;;;;;5197867;28;20260;-34
2023/12/19 03:59:34;;;;;;;1.77;1.63;;;2.40;99.90;;;;;;5200255;28;20029;-34
2023/12/19 04:02:08;;;;;;;3.40;1.40;;;2.30;99.90;;;;;;5188745;28;20513;-34
2023/12/19 04:04:41;;;;;;;2.00;1.13;;;2.10;99.90;;;;;;5193012;28;20045;-34
2023/12/19 04:07:15;;;;;;;2.97;1.95;;;1.90;99.90;;;;;;5201254;28;20345;-34
2023/12/19 04:09:50;;;;;;;4.65;1.95;;;1.70;99.90;;;;;;5199424;28;20264;-37
2023/12/19 04:12:21;;;;;;;3.97;3.05;;;1.50;99.90;;;;;;5201271;28;20043;-34
2023/12/19 04:14:54;;;;;;;4.85;3.65;;;1.30;1.00;;;;;;5201326;28;20249;-34
2023/12/19 04:17:28;;;;;;;5.80;3.80;;;1.00;1.00;;;;;;5201914;28;20343;-33
2023/12/19 04:20:02;;;;;;;5.45;3.72;;;1.00;99.90;;;;;;5220237;28;20328;-35
2023/12/19 04:22:34;;;;;;;2.50;2.25;;;0.80;99.90;;;;;;5205527;28;20037;-34
2023/12/19 04:25:09;;;;;;;1.75;1.65;;;0.70;1.00;;;;;;5213968;28;20041;-35
2023/12/19 04:27:45;;;;;;;1.40;1.30;;;0.60;1.00;;;;;;5184259;28;20612;-34
2023/12/19 04:30:16;;;;;;;2.45;2.17;;;0.70;99.90;;;;;;5204724;28;20036;-34
2023/12/19 04:32:47;;;;;;;3.25;2.05;;;0.90;99.90;;;;;;5202809;28;20043;-34
2023/12/19 04:35:23;;;;;;;3.47;1.67;;;0.90;1.00;;;;;;5184777;28;20052;-34
2023/12/19 04:37:57;;;;;;;2.15;1.63;;;0.80;1.00;;;;;;5182868;28;20033;-33
2023/12/19 04:40:29;;;;;;;2.75;1.95;;;0.70;1.00;;;;;;5200548;28;20061;-34
2023/12/19 04:43:03;;;;;;;12.43;6.35;;;0.80;1.00;;;;;;5196802;28;20045;-34
2023/12/19 04:45:34;;;;;;;3.95;2.53;;;0.90;1.00;;;;;;5195318;28;20037;-35
2023/12/19 04:48:09;;;;;;;2.33;1.67;;;1.00;1.00;;;;;;5199937;28;20028;-35
2023/12/19 04:50:43;;;;;;;;;;;1.10;1.00;;;;;;5197608;28;20029;-34
2023/12/19 04:53:14;;;;;;;2.08;1.80;;;1.10;99.90;;;;;;5199019;28;19910;-34
2023/12/19 04:55:46;;;;;;;3.22;1.80;;;1.10;99.90;;;;;;5214204;28;20041;-34
2023/12/19 04:58:20;;;;;;;2.38;1.92;;;0.90;99.90;;;;;;5211778;28;20294;-34
2023/12/19 05:00:52;;;;;;;3.67;2.10;;;0.90;1.00;;;;;;5194897;28;20045;-34
2023/12/19 05:03:25;;;;;;;3.28;2.38;;;0.80;1.00;;;;;;5179524;28;20036;-35
2023/12/19 05:05:56;;;;;;;4.10;2.28;;;0.70;1.00;;;;;;5200682;28;20044;-34
2023/12/19 05:08:30;;;;;;;5.30;2.40;;;0.50;1.00;;;;;;5184039;28;20045;-37
2023/12/19 05:11:04;;;;;;;4.13;2.00;;;0.50;76.00;;;;;;5194467;28;20345;-34
2023/12/19 05:13:38;;;;;;;2.85;1.90;;;0.70;99.90;;;;;;5203017;28;20324;-34
2023/12/19 05:16:12;;;;;;;1.85;1.52;;;0.70;1.00;;;;;;5208021;28;20104;-34
2023/12/19 05:18:45;;;;;;;4.50;2.00;;;0.90;1.00;;;;;;5199059;28;20041;-34
2023/12/19 05:21:21;;;;;;;4.45;2.50;;;0.90;1.00;;;;;;5195854;28;20120;-34
2023/12/19 05:23:52;;;;;;;2.63;1.90;;;0.80;1.00;;;;;;5202944;28;20025;-34
2023/12/19 05:26:23;;;;;;;3.22;2.53;;;0.80;1.00;;;;;;5201044;28;20420;-34
2023/12/19 05:28:55;;;;;;;3.17;1.70;;;0.70;1.00;;;;;;5190013;28;20361;-34
2023/12/19 05:31:26;;;;;;;3.47;1.70;;;0.60;1.00;;;;;;5188748;28;20033;-34
2023/12/19 05:34:00;;;;;;;3.85;2.67;;;0.50;39.80;;;;;;5198019;28;20184;-35
2023/12/19 05:36:34;;;;;;;4.43;2.53;;;0.50;99.90;;;;;;5200469;28;20033;-34
2023/12/19 05:39:07;;;;;;;4.20;2.67;;;0.40;99.90;;;;;;5207509;28;20037;-35
2023/12/19 05:41:40;;;;;;;6.55;2.35;;;0.30;99.90;;;;;;5200627;28;20244;-35
2023/12/19 05:44:17;;;;;;;4.43;2.20;;;0.40;99.90;;;;;;5191476;28;20049;-35
2023/12/19 05:46:58;;;;;;;4.13;2.42;;;0.40;99.90;;;;;;5183596;28;20036;-35
2023/12/19 05:49:30;;;;;;;7.28;2.50;;;0.40;99.90;;;;;;5200947;28;20028;-35
2023/12/19 05:52:01;;;;;;;5.90;3.00;;;0.40;99.90;;;;;;5201971;28;20213;-34
2023/12/19 05:54:33;;;;;;;3.97;2.45;;;0.40;99.90;;;;;;5190782;28;20029;-34
2023/12/19 05:57:04;;;;;;;4.93;2.97;;;0.50;99.90;;;;;;5200456;28;20033;-35
2023/12/19 05:59:38;;;;;;;3.22;2.28;;;0.60;99.90;;;;;;5200058;28;20318;-34
2023/12/19 06:02:10;;;;;;;3.95;2.58;;;0.60;99.90;;;;;;5199237;28;20029;-34
2023/12/19 06:04:41;;;;;;;3.25;2.55;;;0.50;99.90;;;;;;5199857;28;20045;-34
2023/12/19 06:07:15;;;;;;;3.63;2.63;;;0.40;99.90;;;;;;5201349;28;20045;-35
2023/12/19 06:09:46;;;;;;;5.25;3.10;;;0.40;99.90;;;;;;5216748;28;20466;-34
2023/12/19 06:12:18;;;;;;;5.75;2.47;;;0.40;99.90;;;;;;5200400;28;20337;-34
2023/12/19 06:14:53;;;;;;;4.45;2.67;;;0.30;99.90;;;;;;5206179;28;20037;-34
2023/12/19 06:17:28;;;;;;;3.28;2.55;;;0.20;99.90;;;;;;5202596;28;20029;-34
2023/12/19 06:20:01;;;;;;;;;;;0.30;99.90;;;;;;5202101;28;20107;-34
2023/12/19 06:22:37;;;;;;;6.45;3.83;;;0.40;99.90;;;;;;5193925;28;19913;-34
2023/12/19 06:25:09;;;;;;;4.45;3.22;;;0.40;99.90;;;;;;5195887;28;20044;-34
2023/12/19 06:27:42;;;;;;;11.00;4.60;;;0.50;99.90;;;;;;5202019;28;20491;-34
2023/12/19 06:30:14;;;;;;;4.10;2.80;;;0.50;99.90;;;;;;5207305;28;20346;-34
2023/12/19 06:32:50;;;;;;;4.30;3.08;;;0.40;99.90;;;;;;5201409;28;20052;-34
2023/12/19 06:35:27;;;;;;;6.30;2.75;;;0.40;99.90;;;;;;5199922;28;20297;-34
2023/12/19 06:38:01;;;;;;;5.68;2.97;;;0.40;99.90;;;;;;5182782;28;20053;-34
2023/12/19 06:40:34;;;;;;;3.40;3.00;;;0.60;99.90;;;;;;5200040;28;20037;-37
2023/12/19 06:43:10;;;;;;;6.50;2.35;;;0.80;1.00;;;;;;5201565;28;20045;-34
2023/12/19 06:45:48;;;;;;;2.70;2.00;;;0.90;1.00;;;;;;5219018;28;20345;-34
2023/12/19 06:48:23;;;;;;;2.50;2.00;;;1.00;1.00;;;;;;5216395;28;20292;-34
2023/12/19 06:50:54;;;;;;;4.35;2.45;;;1.00;99.90;;;;;;5202691;28;20029;-35
2023/12/19 06:53:26;;;;;;;5.15;3.00;;;1.00;99.90;;;;;;5197317;28;20124;-35
2023/12/19 06:55:57;;;;;;;5.93;3.85;;;1.00;99.90;;;;;;5192218;28;20037;-35
2023/12/19 06:58:31;;;;;;;5.65;3.92;;;1.00;99.90;;;;;;5196160;28;20037;-35
2023/12/19 07:01:06;;;;;;;;;;;1.00;1.00;;;;;;5195330;28;20033;-35
2023/12/19 07:03:40;;;;;;;9.45;5.07;;;1.00;1.00;;;;;;5181154;28;19915;-35
2023/12/19 07:06:27;;;;;;;12.50;4.65;;;0.90;1.00;;;;;;5181822;28;20205;-34
2023/12/19 07:08:59;;;;;;;7.22;4.50;;;1.00;1.00;;;;;;5194151;28;20036;-34
2023/12/19 07:11:30;;;;;;;4.63;2.50;;;1.20;99.90;;;;;;5186011;28;20030;-34
2023/12/19 07:14:04;;;;;;;3.40;2.85;;;1.30;99.90;;;;;;5210304;28;20028;-36
2023/12/19 07:16:35;;;;;;;5.00;2.42;;;1.50;1.00;;;;;;5209081;28;20309;-34
2023/12/19 07:19:12;;;;;;;3.42;2.35;;;2.10;99.90;;;;;;5200196;28;20083;-34
2023/12/19 07:21:44;;;;;;;6.45;4.40;;;2.30;99.90;;;;;;5214388;28;20158;-34
2023/12/19 07:24:15;;;;;;;7.88;4.40;;;2.50;38.90;;;;;;5196513;28;20024;-34
2023/12/19 07:26:50;;;;;;;9.77;6.15;;;2.60;98.30;;;;;;5198081;28;20301;-33
2023/12/19 07:29:21;;;;;;;;;;;2.80;1.00;;;;;;5211040;28;20066;-33
2023/12/19 07:31:52;;;;;;;8.20;4.65;;;3.10;1.00;;;;;;5213318;28;20443;-34
2023/12/19 07:34:23;;;;;;;7.28;3.22;;;3.30;1.00;;;;;;5201520;28;20034;-34
2023/12/19 07:36:57;;;;;;;4.43;4.00;;;3.50;1.00;;;;;;5195615;28;20212;-34
2023/12/19 07:39:31;;;;;;;6.20;3.55;;;3.60;1.00;;;;;;5202431;28;20036;-37
2023/12/19 07:42:04;;;;;;;6.00;3.88;;;3.60;1.00;;;;;;5206569;28;20044;-34
2023/12/19 07:44:39;;;;;;;5.90;3.78;;;3.70;1.00;;;;;;5201738;28;20067;-34
2023/12/19 07:47:10;;;;;;;7.78;4.70;;;3.70;1.00;;;;;;5192437;28;20041;-34
2023/12/19 07:49:46;;;;;;;8.93;5.45;;;3.60;1.00;;;;;;5194392;28;20038;-34
2023/12/19 07:52:18;;;;;;;10.02;6.40;;;3.40;1.00;;;;;;5192060;28;20226;-34
2023/12/19 07:54:49;;;;;;;13.93;6.72;;;3.30;1.00;;;;;;5180328;28;20038;-34
2023/12/19 07:57:21;;;;;;;11.73;6.88;;;3.30;1.00;;;;;;5175871;28;20317;-34
2023/12/19 07:59:52;;;;;;;9.73;6.05;;;3.20;1.00;;;;;;5210194;28;20044;-34
2023/12/19 08:02:23;;;;;;;14.60;7.15;;;3.10;1.00;;;;;;5182551;28;20032;-34
2023/12/19 08:04:58;;;;;;;15.07;6.50;;;3.30;1.00;;;;;;5193329;28;20064;-34
2023/12/19 08:07:31;;;;;;;14.00;6.88;;;3.20;8.60;;;;;;5200202;28;20037;-34
2023/12/19 08:10:04;;;;;;;11.73;7.47;;;3.40;97.30;;;;;;5183627;28;20249;-34
2023/12/19 08:12:35;;;;;;;12.38;6.47;;;3.40;71.50;;;;;;5190142;28;20017;-34
2023/12/19 08:15:10;;;;;;;29.15;9.63;;;3.50;67.50;;;;;;5191116;28;20036;-34
2023/12/19 08:17:41;;;;;;;18.88;6.53;;;3.60;70.50;;;;;;5214409;28;20290;-34
2023/12/19 08:20:16;;;;;;;13.48;7.25;;;3.60;29.50;;;;;;5199579;28;20247;-34
2023/12/19 08:22:47;;;;;;;10.57;6.50;;;3.60;11.50;;;;;;5199092;28;20237;-34
2023/12/19 08:25:21;;;;;;;10.95;6.55;;;3.90;99.90;;;;;;5197949;28;20033;-34
2023/12/19 08:27:52;;;;;;;10.68;6.38;;;3.90;4.80;;;;;;5211751;28;20048;-34
2023/12/19 08:30:27;;;;;;;13.73;7.00;;;4.00;40.60;;;;;;5175008;28;20072;-34
2023/12/19 08:33:02;;;;;;;16.05;7.82;;;4.20;66.40;;;;;;5199301;28;20052;-34
2023/12/19 08:35:35;;;;;;;14.05;7.53;;;4.40;1.00;;;;;;5185812;28;20447;-34
2023/12/19 08:38:11;;;;;;;15.35;7.35;;;4.60;2.80;;;;;;5180031;28;20310;-39
2023/12/19 08:40:42;;;;;;;13.73;7.75;;;4.70;1.00;;;;;;5190494;28;20026;-35
2023/12/19 08:43:18;;;;;;;11.70;7.30;;;4.70;1.00;;;;;;5196247;28;20037;-35
2023/12/19 08:45:49;;;;;;;12.35;6.78;;;4.70;1.00;;;;;;5185769;28;20021;-35
2023/12/19 08:48:22;;;;;;;15.43;7.57;;;4.70;1.00;;;;;;5192448;28;20364;-34
2023/12/19 08:50:53;;;;;;;12.90;6.90;;;5.10;1.00;;;;;;5193144;28;20382;-34
2023/12/19 08:53:24;;;;;;;13.95;8.18;;;5.20;1.00;;;;;;5198289;28;20469;-34
2023/12/19 08:55:58;;;;;;;12.02;6.90;;;5.40;1.00;;;;;;5205057;28;20368;-34
2023/12/19 08:58:31;;;;;;;14.00;7.37;;;5.70;1.00;;;;;;5202013;28;20037;-34
2023/12/19 09:01:05;;;;;;;8.68;6.63;;;6.00;1.00;;;;;;5194739;28;20029;-34
2023/12/19 09:03:39;;;;;;;15.18;8.13;;;6.10;1.00;;;;;;5199281;28;20474;-35
2023/12/19 09:06:15;;;;;;;11.95;7.07;;;6.30;1.00;;;;;;5202162;28;20032;-35
2023/12/19 09:08:53;;;;;;;15.38;8.65;;;6.60;1.00;;;;;;5219781;28;20325;-35
2023/12/19 09:11:24;;;;;;;11.90;7.40;;;6.70;1.00;;;;;;5197957;28;20029;-35
2023/12/19 09:13:55;;;;;;;17.63;8.65;;;6.70;1.00;;;;;;5199302;28;20222;-35
2023/12/19 09:16:28;;;;;;;14.38;8.15;;;6.60;1.00;;;;;;5183490;28;20034;-35
2023/12/19 09:19:05;;;;;;;13.32;7.35;;;6.70;1.00;;;;;;5187087;28;20051;-33
2023/12/19 09:21:41;;;;;;;11.25;7.18;;;6.90;1.00;;;;;;5198195;28;20099;-36
2023/12/19 09:24:13;;;;;;;16.55;7.65;;;6.90;1.00;;;;;;5192899;28;20049;-35
2023/12/19 09:26:48;;;;;;;12.45;7.78;;;6.90;1.00;;;;;;5203925;28;20344;-35
2023/12/19 09:29:22;;;;;;;14.48;7.55;;;7.00;1.00;;;;;;5177122;28;20049;-35
2023/12/19 09:31:56;;;;;;;;;;;7.30;1.00;;;;;;5175147;28;20030;-34
2023/12/19 09:34:30;;;;;;;11.48;7.47;;;7.60;1.00;;;;;;5178425;28;20135;-34
2023/12/19 09:37:07;;;;;;;21.52;8.27;;;7.70;1.00;;;;;;5180908;28;20045;-35
2023/12/19 09:39:44;;;;;;;13.75;9.02;;;8.00;1.00;;;;;;5179709;28;20036;-35
2023/12/19 09:42:19;;;;;;;12.45;8.85;;;8.30;1.00;;;;;;5183592;28;20118;-34
2023/12/19 09:44:51;;;;;;;15.50;8.80;;;8.70;99.90;;;;;;5185744;28;20314;-35
2023/12/19 09:47:23;;;;;;;15.85;7.85;;;8.90;99.90;;;;;;5194424;28;20029;-34
2023/12/19 09:50:00;;;;;;;15.98;8.10;;;9.40;99.90;;;;;;5219516;28;20025;-34
2023/12/19 09:52:34;;;;;;;14.25;8.45;;;9.60;99.90;;;;;;5192955;28;20037;-34
2023/12/19 09:55:05;;;;;;;11.57;8.05;;;10.10;99.90;;;;;;5195998;28;20030;-34
2023/12/19 09:57:40;;;;;;;15.48;8.75;;;10.60;99.90;;;;;;5182232;28;20048;-34
2023/12/19 10:00:12;;;;;;;17.30;7.80;;;11.00;1.00;;;;;;5197816;28;20033;-34
2023/12/19 10:02:45;;;;;;;19.55;8.57;;;10.90;1.00;;;;;;5198856;28;20037;-35
2023/12/19 10:05:26;;;;;;;20.47;8.17;;;11.20;1.00;;;;;;5200297;28;20032;-35
2023/12/19 10:07:59;;;;;;;10.43;7.22;;;11.50;1.00;;;;;;5217060;28;20016;-35
2023/12/19 10:10:57;;;;;;;16.25;7.15;;;11.70;1.00;;;;;;5212615;28;20326;-34
2023/12/19 10:13:30;;;;;;;13.73;7.40;;;10.70;1.00;;;;;;5194919;28;20201;-34
2023/12/19 10:16:06;;;;;;;13.35;7.82;;;11.00;1.00;;;;;;5187129;28;20035;-34
2023/12/19 10:18:42;;;;;;;13.13;6.68;;;11.80;1.00;;;;;;5204107;28;20024;-39
2023/12/19 10:21:14;;;;;;;10.27;6.85;;;12.10;1.00;;;;;;5200417;28;20032;-35
2023/12/19 10:23:46;;;;;;;11.90;7.20;;;12.80;1.00;;;;;;5198112;28;20036;-33
2023/12/19 10:26:28;;;;;;;14.32;7.43;;;13.70;1.00;;;;;;5196749;28;20034;-33
2023/12/19 10:28:59;;;;;;;10.48;6.53;;;14.60;1.00;;;;;;5217751;28;20043;-34
2023/12/19 10:31:30;;;;;;;10.95;6.25;;;15.30;1.00;;;;;;5199301;28;20029;-33
2023/12/19 10:34:07;;;;;;;9.23;6.07;;;15.80;99.90;;;;;;5201752;28;20036;-35
2023/12/19 10:36:41;;;;;;;9.32;5.80;;;15.70;99.90;;;;;;5198840;28;20360;-34
2023/12/19 10:39:19;;;;;;;10.70;6.55;;;16.50;99.90;;;;;;5180529;28;20377;-35
2023/12/19 10:42:04;;;;;;;7.88;5.55;;;17.40;99.90;;;;;;5183034;28;20237;-33
2023/12/19 10:44:42;;;;;;;8.30;5.70;;;17.40;99.90;;;;;;5200145;28;20044;-34
2023/12/19 10:47:13;;;;;;;7.93;5.60;;;16.00;99.90;;;;;;5187469;28;20494;-34
2023/12/19 10:49:45;;;;;;;8.23;6.07;;;16.50;99.90;;;;;;5221914;28;20033;-34
2023/12/19 10:52:18;;;;;;;13.52;6.50;;;17.40;99.90;;;;;;5190243;28;20042;-39
2023/12/19 10:54:58;;;;;;;9.90;6.13;;;18.10;99.90;;;;;;5196202;28;20030;-35
2023/12/19 10:57:36;;;;;;;13.50;6.55;;;18.70;99.90;;;;;;5190212;28;20035;-33
2023/12/19 11:00:13;;;;;;;17.35;6.63;;;18.90;99.90;;;;;;5216495;28;20028;-33
2023/12/19 11:02:53;;;;;;;9.95;7.03;;;18.70;99.90;;;;;;5201589;28;20041;-33
2023/12/19 11:05:46;;;;;;;13.02;7.70;;;18.70;1.00;;;;;;5200677;28;20064;-33
2023/12/19 11:08:22;;;;;;;10.95;6.45;;;18.50;10.40;;;;;;5190319;28;20029;-34
2023/12/19 11:11:06;;;;;;;11.43;7.38;;;18.40;45.70;;;;;;5180978;28;20038;-35
2023/12/19 11:13:41;;;;;;;9.98;6.43;;;18.40;18.00;;;;;;5197463;28;20310;-34
2023/12/19 11:16:32;;;;;;;19.83;7.85;;;16.90;1.00;;;;;;5178037;28;20242;-34
2023/12/19 11:19:13;;;;;;;13.10;6.90;;;17.10;7.70;;;;;;5204814;28;20027;-34
2023/12/19 11:22:13;;;;;;;15.00;7.78;;;16.60;34.30;;;;;;5214145;28;20035;-34
2023/12/19 11:25:18;;;;;;;9.23;6.22;;;16.60;1.00;;;;;;5198896;28;20392;-34
2023/12/19 11:28:11;;;;;;;11.52;7.60;;;17.50;15.30;;;;;;5199370;28;20021;-33
2023/12/19 11:30:43;;;;;;;13.70;7.03;;;18.30;99.90;;;;;;5175093;28;20037;-33
2023/12/19 11:33:30;;;;;;;10.05;6.35;;;18.00;95.80;;;;;;5193043;28;20408;-33
2023/12/19 11:36:13;;;;;;;10.13;6.45;;;17.90;99.90;;;;;;5200748;28;20242;-34
2023/12/19 11:38:49;;;;;;;13.53;6.83;;;16.60;1.00;;;;;;5191719;28;20632;-34
2023/12/19 11:41:38;;;;;;;9.18;6.50;;;17.20;72.90;;;;;;5197661;28;20263;-34
2023/12/19 11:44:38;;;;;;;9.05;5.22;;;18.20;99.90;;;;;;5179254;28;20309;-34
2023/12/19 11:47:17;;;;;;;7.32;5.63;;;19.60;99.90;;;;;;5176415;28;20240;-34
2023/12/19 11:49:50;;;;;;;8.27;5.82;;;19.20;99.90;;;;;;5212179;28;20303;-34
2023/12/19 11:52:37;;;;;;;9.05;6.88;;;19.30;99.90;;;;;;5206039;28;20035;-34
2023/12/19 11:55:21;;;;;;;7.28;5.47;;;19.50;99.90;;;;;;5199445;28;20039;-33
2023/12/19 11:57:52;;;;;;;11.20;6.13;;;18.70;99.90;;;;;;5184113;28;20322;-33
2023/12/19 12:00:23;;;;;;;8.20;4.82;;;18.90;99.90;;;;;;5188509;28;20250;-34
2023/12/19 12:03:05;;;;;;;9.00;5.47;;;19.00;99.90;;;;;;5196362;28;20100;-33
2023/12/19 12:05:39;;;;;;;6.72;5.47;;;19.10;99.90;;;;;;5197077;28;20533;-33
2023/12/19 12:08:18;;;;;;;6.70;5.35;;;19.90;99.90;;;;;;5202151;28;20218;-36
2023/12/19 12:11:06;;;;;;;11.10;5.63;;;19.50;45.90;;;;;;5169354;28;20041;-34
2023/12/19 12:13:37;;;;;;;6.82;4.47;;;19.30;68.70;;;;;;5203618;28;20025;-33
2023/12/19 12:16:09;;;;;;;6.85;5.32;;;19.30;97.00;;;;;;5189091;28;20365;-38
2023/12/19 12:18:43;;;;;;;8.98;5.70;;;18.40;16.90;;;;;;5181079;28;20025;-34
2023/12/19 12:21:17;;;;;;;8.57;6.63;;;18.40;45.60;;;;;;5197052;28;20227;-34
2023/12/19 12:23:52;;;;;;;9.80;6.32;;;18.00;1.00;;;;;;5198359;28;20025;-34
2023/12/19 12:26:23;;;;;;;10.95;6.72;;;17.10;1.00;;;;;;5198142;28;20033;-34
2023/12/19 12:28:54;;;;;;;9.70;6.45;;;17.10;1.00;;;;;;5212318;28;20033;-34
2023/12/19 12:31:28;;;;;;;9.13;4.97;;;17.30;1.00;;;;;;5196177;28;20024;-34
2023/12/19 12:34:00;;;;;;;8.68;5.68;;;16.70;1.00;;;;;;5197519;28;20052;-34
2023/12/19 12:36:37;;;;;;;9.65;6.63;;;16.60;1.00;;;;;;5194583;28;20033;-34
2023/12/19 12:39:09;;;;;;;10.85;6.43;;;17.00;1.00;;;;;;5220849;28;20310;-34
2023/12/19 12:41:43;;;;;;;9.88;6.90;;;17.30;15.00;;;;;;5215614;28;20021;-34
2023/12/19 12:44:14;;;;;;;13.02;7.63;;;17.40;18.70;;;;;;5198605;28;20059;-34
2023/12/19 12:46:47;;;;;;;8.00;6.65;;;17.50;9.90;;;;;;5169984;28;20033;-34
2023/12/19 12:49:23;;;;;;;7.82;6.40;;;16.70;23.60;;;;;;5192869;28;20283;-34
2023/12/19 12:51:58;;;;;;;9.02;6.05;;;16.70;1.00;;;;;;5198500;28;20035;-34
2023/12/19 12:54:32;;;;;;;11.15;7.47;;;17.00;21.20;;;;;;5195919;28;20308;-34
2023/12/19 12:57:12;;;;;;;11.50;7.23;;;16.90;1.00;;;;;;5195683;28;20041;-34
2023/12/19 12:59:49;;;;;;;16.50;7.30;;;17.20;92.00;;;;;;5198368;28;20267;-34
2023/12/19 13:02:24;;;;;;;10.90;6.70;;;17.20;59.60;;;;;;5208209;28;20037;-34
2023/12/19 13:04:55;;;;;;;11.10;6.93;;;18.10;99.90;;;;;;5192491;28;20045;-33
2023/12/19 13:07:26;;;;;;;11.68;7.53;;;18.10;99.90;;;;;;5190472;28;20064;-34
2023/12/19 13:09:57;;;;;;;10.23;7.03;;;18.10;99.90;;;;;;5207325;28;20356;-34
2023/12/19 13:12:31;;;;;;;11.38;7.63;;;17.50;84.50;;;;;;5205060;28;20041;-34
2023/12/19 13:15:05;;;;;;;13.25;7.20;;;17.90;99.90;;;;;;5208783;28;20179;-35
2023/12/19 13:17:36;;;;;;;8.52;6.50;;;17.90;99.90;;;;;;5189377;28;20033;-33
2023/12/19 13:20:10;;;;;;;10.93;7.63;;;17.20;74.90;;;;;;5206377;28;20115;-33
2023/12/19 13:22:43;;;;;;;9.88;7.03;;;16.60;35.10;;;;;;5209222;28;20036;-33
2023/12/19 13:25:17;;;;;;;11.10;6.90;;;15.90;1.00;;;;;;5202812;28;20083;-33
2023/12/19 13:27:50;;;;;;;13.40;7.78;;;15.40;1.00;;;;;;5215005;28;20496;-33
2023/12/19 13:30:24;;;;;;;14.05;8.02;;;15.00;1.00;;;;;;5197699;28;20464;-34
2023/12/19 13:32:58;;;;;;;11.07;7.78;;;14.40;1.00;;;;;;5214814;28;20037;-34
2023/12/19 13:35:29;;;;;;;12.43;8.27;;;14.10;1.00;;;;;;5203440;28;20330;-33